createdAt,value
2023-03-30T00:00:22.225Z,1.92
2023-03-30T00:05:26.621Z,1.63
2023-03-30T00:10:30.824Z,2.15
2023-03-30T00:15:34.981Z,2.35
2023-03-30T00:20:43.889Z,2.25
2023-03-30T00:25:48.223Z,2.47
2023-03-30T00:30:54.243Z,2.83
2023-03-30T00:35:59.690Z,2.50
2023-03-30T00:41:03.858Z,2.70
2023-03-30T00:46:08.162Z,2.20
2023-03-30T00:51:12.869Z,1.90
2023-03-30T00:56:21.372Z,2.38
2023-03-30T01:01:29.794Z,1.80
2023-03-30T01:06:36.729Z,2.15
2023-03-30T01:11:41.288Z,1.38
2023-03-30T01:16:53.839Z,1.70
2023-03-30T01:22:28.197Z,2.03
2023-03-30T01:27:40.293Z,1.70
2023-03-30T01:32:59.372Z,2.10
2023-03-30T01:38:18.289Z,1.90
2023-03-30T01:43:39.243Z,1.58
2023-03-30T01:49:12.072Z,1.90
2023-03-30T01:54:25.321Z,1.80
2023-03-30T01:59:47.605Z,2.65
2023-03-30T02:04:54.673Z,1.83
2023-03-30T02:10:03.810Z,2.00
2023-03-30T02:15:12.931Z,1.38
2023-03-30T02:20:18.635Z,1.48
2023-03-30T02:25:23.904Z,1.63
2023-03-30T02:30:34.798Z,1.92
2023-03-30T02:35:50.503Z,1.77
2023-03-30T02:41:08.985Z,1.70
2023-03-30T02:46:38.575Z,1.70
2023-03-30T02:52:09.568Z,1.67
2023-03-30T02:57:38.414Z,1.85
2023-03-30T03:03:29.994Z,2.20
2023-03-30T03:08:37.747Z,2.33
2023-03-30T03:13:46.051Z,1.90
2023-03-30T03:18:50.403Z,1.90
2023-03-30T03:23:54.630Z,1.42
2023-03-30T03:28:59.729Z,1.35
2023-03-30T03:34:03.741Z,2.70
2023-03-30T03:39:40.649Z,1.27
2023-03-30T03:44:47.643Z,1.48
2023-03-30T03:49:52.349Z,1.90
2023-03-30T03:54:56.188Z,1.70
2023-03-30T04:00:01.669Z,1.77
2023-03-30T04:05:16.245Z,1.23
2023-03-30T04:10:22.129Z,1.27
2023-03-30T04:16:02.506Z,2.08
2023-03-30T04:21:19.086Z,2.22
2023-03-30T04:26:42.562Z,2.75
2023-03-30T04:32:04.665Z,2.10
2023-03-30T04:37:31.218Z,1.83
2023-03-30T04:42:41.116Z,1.73
2023-03-30T04:47:54.228Z,1.75
2023-03-30T04:53:01.207Z,1.33
2023-03-30T04:58:05.010Z,1.63
2023-03-30T05:03:37.853Z,1.42
2023-03-30T05:08:53.717Z,1.13
2023-03-30T05:14:16.331Z,1.17
2023-03-30T05:19:30.263Z,1.35
2023-03-30T05:25:00.149Z,1.10
2023-03-30T05:30:24.874Z,1.10
2023-03-30T05:35:57.839Z,0.80
2023-03-30T05:41:23.213Z,0.90
2023-03-30T05:46:51.388Z,0.85
2023-03-30T05:52:23.265Z,1.13
2023-03-30T05:57:53.596Z,0.82
2023-03-30T06:03:06.728Z,0.75
2023-03-30T06:08:12.839Z,0.80
2023-03-30T06:13:17.810Z,1.13
2023-03-30T06:18:28.119Z,1.75
2023-03-30T06:23:38.626Z,1.30
2023-03-30T06:28:48.610Z,1.20
2023-03-30T06:33:52.626Z,1.13
2023-03-30T06:38:57.174Z,1.00
2023-03-30T06:44:01.770Z,1.13
2023-03-30T06:49:12.920Z,1.10
2023-03-30T06:54:21.096Z,1.42
2023-03-30T06:59:34.580Z,1.10
2023-03-30T07:04:57.770Z,0.98
2023-03-30T07:10:12.969Z,1.00
2023-03-30T07:15:17.350Z,1.25
2023-03-30T07:20:22.940Z,0.90
2023-03-30T07:25:47.384Z,0.98
2023-03-30T07:31:11.197Z,0.95
2023-03-30T07:36:17.917Z,0.65
2023-03-30T07:41:22.041Z,1.10
2023-03-30T07:46:30.220Z,0.90
2023-03-30T07:51:35.242Z,1.70
2023-03-30T07:56:46.087Z,1.20
2023-03-30T08:01:52.710Z,0.90
2023-03-30T08:07:15.174Z,0.80
2023-03-30T08:12:23.153Z,0.87
2023-03-30T08:17:27.259Z,0.88
2023-03-30T08:22:31.208Z,0.77
2023-03-30T08:27:35.458Z,0.60
2023-03-30T08:32:39.889Z,0.70
2023-03-30T08:37:44.006Z,0.60
2023-03-30T08:43:12.882Z,0.70
2023-03-30T08:48:26.016Z,0.70
2023-03-30T08:53:33.906Z,0.60
2023-03-30T08:58:40.858Z,0.70
2023-03-30T09:04:05.889Z,0.60
2023-03-30T09:09:17.757Z,0.60
2023-03-30T09:14:36.450Z,1.40
2023-03-30T09:19:58.074Z,0.73
2023-03-30T09:25:02.358Z,0.70
2023-03-30T09:30:28.030Z,0.50
2023-03-30T09:35:45.807Z,0.50
2023-03-30T09:41:18.777Z,0.70
2023-03-30T09:46:22.887Z,0.68
2023-03-30T09:51:31.396Z,0.90
2023-03-30T09:56:35.250Z,1.00
2023-03-30T10:01:39.451Z,0.75
2023-03-30T10:06:51.463Z,0.55
2023-03-30T10:11:56.570Z,0.65
2023-03-30T10:17:01.979Z,0.93
2023-03-30T10:22:19.574Z,0.63
2023-03-30T10:27:34.808Z,0.98
2023-03-30T10:32:39.103Z,0.70
2023-03-30T10:37:47.688Z,0.68
2023-03-30T10:42:59.742Z,0.77
2023-03-30T10:48:31.857Z,1.20
2023-03-30T10:54:03.590Z,0.77
2023-03-30T10:59:36.883Z,0.70
2023-03-30T11:04:46.343Z,1.15
2023-03-30T11:09:56.585Z,0.95
2023-03-30T11:15:39.451Z,0.77
2023-03-30T11:21:00.373Z,0.77
2023-03-30T11:26:13.135Z,0.68
2023-03-30T11:31:32.108Z,0.68
2023-03-30T11:42:17.412Z,0.75
2023-03-30T11:47:36.983Z,1.10
2023-03-30T11:53:09.402Z,0.80
2023-03-30T11:58:35.261Z,0.70
2023-03-30T12:04:10.789Z,0.93
2023-03-30T12:09:27.804Z,0.90
2023-03-30T12:14:55.228Z,0.80
2023-03-30T12:20:33.923Z,1.05
2023-03-30T12:26:10.892Z,0.90
2023-03-30T12:31:16.181Z,1.00
2023-03-30T12:36:36.340Z,1.20
2023-03-30T12:41:43.810Z,0.88
2023-03-30T12:47:07.472Z,0.95
2023-03-30T12:52:36.755Z,1.30
2023-03-30T12:57:46.878Z,1.00
2023-03-30T13:03:03.447Z,1.35
2023-03-30T13:08:19.801Z,1.10
2023-03-30T13:13:45.409Z,1.50
2023-03-30T13:18:49.174Z,1.10
2023-03-30T13:24:03.481Z,1.23
2023-03-30T13:29:12.396Z,1.17
2023-03-30T13:39:49.174Z,1.30
2023-03-30T13:45:23.920Z,1.17
2023-03-30T13:50:32.126Z,1.30
2023-03-30T13:55:58.718Z,1.50
2023-03-30T14:01:08.457Z,1.15
2023-03-30T14:06:15.731Z,1.63
2023-03-30T14:11:41.756Z,1.70
2023-03-30T14:16:45.658Z,1.25
2023-03-30T14:21:53.919Z,1.48
2023-03-30T14:27:14.206Z,1.50
2023-03-30T14:32:26.813Z,1.80
2023-03-30T14:37:32.974Z,1.60
2023-03-30T14:42:36.914Z,1.83
2023-03-30T14:47:41.889Z,1.90
2023-03-30T14:52:47.765Z,1.75
2023-03-30T14:57:52.933Z,2.03
2023-03-30T15:03:02.375Z,1.90
2023-03-30T15:08:07.439Z,1.80
2023-03-30T15:13:21.814Z,1.70
2023-03-30T15:18:29.140Z,1.67
2023-03-30T15:23:39.506Z,1.13
2023-03-30T15:28:50.133Z,1.70
2023-03-30T15:34:02.827Z,1.50
2023-03-30T15:39:34.441Z,1.60
2023-03-30T15:44:42.005Z,1.50
2023-03-30T15:49:50.984Z,1.67
2023-03-30T15:54:56.500Z,1.50
2023-03-30T16:00:10.201Z,1.42
2023-03-30T16:05:20.664Z,1.35
2023-03-30T16:10:29.892Z,1.60
2023-03-30T16:15:35.105Z,1.80
2023-03-30T16:20:39.219Z,2.03
2023-03-30T16:25:45.293Z,1.95
2023-03-30T16:30:53.299Z,1.27
2023-03-30T16:35:57.315Z,2.10
2023-03-30T16:41:03.161Z,1.77
2023-03-30T16:46:07.943Z,1.92
2023-03-30T16:51:13.998Z,1.83
2023-03-30T16:56:19.865Z,2.03
2023-03-30T17:01:25.342Z,1.70
2023-03-30T17:06:29.301Z,1.90
2023-03-30T17:11:33.323Z,2.00
2023-03-30T17:16:41.029Z,1.90
2023-03-30T17:21:46.413Z,1.87
2023-03-30T17:26:52.971Z,1.75
2023-03-30T17:32:20.455Z,2.20
2023-03-30T17:37:24.433Z,2.00
2023-03-30T17:42:29.724Z,2.00
2023-03-30T17:47:36.626Z,1.92
2023-03-30T17:52:42.122Z,1.50
2023-03-30T17:57:47.494Z,1.20
2023-03-30T18:02:53.135Z,1.13
2023-03-30T18:07:57.216Z,1.52
2023-03-30T18:13:01.482Z,1.42
2023-03-30T18:18:05.847Z,1.75
2023-03-30T18:23:10.723Z,1.23
2023-03-30T18:28:26.056Z,1.42
2023-03-30T18:33:29.870Z,1.67
2023-03-30T18:38:34.450Z,1.58
2023-03-30T18:43:39.380Z,1.90
2023-03-30T18:48:43.494Z,1.73
2023-03-30T18:53:47.221Z,1.75
2023-03-30T18:58:51.148Z,2.17
2023-03-30T19:03:54.876Z,1.80
2023-03-30T19:08:58.835Z,1.95
2023-03-30T19:14:04.164Z,1.75
2023-03-30T19:19:11.489Z,2.28
2023-03-30T19:24:16.567Z,2.08
2023-03-30T19:29:20.616Z,2.60
2023-03-30T19:34:24.276Z,2.30
2023-03-30T19:39:28.218Z,2.30
2023-03-30T19:44:32.245Z,2.30
2023-03-30T19:49:36.812Z,2.03
2023-03-30T19:54:40.630Z,2.20
2023-03-30T19:59:44.337Z,2.08
2023-03-30T20:04:48.343Z,1.90
2023-03-30T20:09:52.263Z,2.03
2023-03-30T20:14:56.850Z,2.25
2023-03-30T20:20:07.419Z,2.97
2023-03-30T20:25:14.362Z,2.42
2023-03-30T20:30:19.290Z,2.05
2023-03-30T20:35:25.294Z,2.20
2023-03-30T20:40:29.180Z,2.20
2023-03-30T20:45:33.365Z,1.00
2023-03-30T20:50:37.905Z,1.30
2023-03-30T20:55:43.328Z,1.40
2023-03-30T21:00:47.933Z,1.02
2023-03-30T21:06:01.087Z,1.30
2023-03-30T21:11:05.254Z,1.10
2023-03-30T21:16:09.759Z,0.73
2023-03-30T21:21:13.989Z,0.90
2023-03-30T21:26:19.123Z,0.80
2023-03-30T21:31:23.525Z,0.95
2023-03-30T21:36:27.427Z,1.15
2023-03-30T21:41:31.480Z,0.77
2023-03-30T21:46:35.330Z,1.45
2023-03-30T21:51:39.384Z,1.10
2023-03-30T21:56:43.336Z,1.10
2023-03-30T22:01:47.105Z,0.90
2023-03-30T22:06:51.123Z,1.20
2023-03-30T22:11:56.022Z,0.90
2023-03-30T22:17:00.037Z,1.15
2023-03-30T22:22:06.284Z,0.95
2023-03-30T22:27:10.218Z,0.93
2023-03-30T22:32:14.725Z,1.10
2023-03-30T22:37:18.471Z,1.00
2023-03-30T22:42:23.289Z,1.00
2023-03-30T22:47:27.941Z,0.70
2023-03-30T22:52:32.682Z,1.08
2023-03-30T22:57:36.780Z,0.90
2023-03-30T23:02:41.253Z,0.88
2023-03-30T23:07:46.801Z,0.70
2023-03-30T23:12:50.729Z,1.38
2023-03-30T23:17:54.534Z,1.05
2023-03-30T23:22:58.545Z,0.88
2023-03-30T23:28:04.246Z,0.80
2023-03-30T23:33:28.327Z,1.05
2023-03-30T23:38:32.746Z,1.48
2023-03-30T23:43:36.799Z,1.33
2023-03-30T23:48:41.183Z,1.45
2023-03-30T23:53:44.950Z,1.13
2023-03-30T23:58:48.884Z,1.10
